createdAt,value
2022-09-23T05:08:51.182Z,48.36
2022-09-23T05:11:17.517Z,48.20
2022-09-23T05:13:43.868Z,48.32
2022-09-23T05:16:10.274Z,48.13
2022-09-23T05:18:36.636Z,47.86
2022-09-23T05:21:02.982Z,48.83
2022-09-23T05:23:29.311Z,48.79
2022-09-23T05:25:55.652Z,48.79
2022-09-23T05:28:21.980Z,48.56
2022-09-23T05:30:48.313Z,48.74
2022-09-23T05:33:14.637Z,48.71
2022-09-23T05:35:40.968Z,48.07
2022-09-23T05:38:07.347Z,48.28
2022-09-23T05:40:33.714Z,48.84
2022-09-23T05:43:00.123Z,48.55
2022-09-23T05:45:27.018Z,48.76
2022-09-23T05:47:53.408Z,49.25
2022-09-23T05:50:19.727Z,48.88
2022-09-23T05:52:46.067Z,48.58
2022-09-23T05:55:12.392Z,48.36
2022-09-23T05:57:38.730Z,48.43
2022-09-23T06:00:05.059Z,48.38
2022-09-23T06:02:31.508Z,47.87
2022-09-23T06:04:57.865Z,48.73
2022-09-23T06:07:24.205Z,48.39
2022-09-23T06:09:50.552Z,48.59
2022-09-23T06:12:16.881Z,48.51
2022-09-23T06:14:43.213Z,48.84
2022-09-23T06:17:09.540Z,48.66
2022-09-23T06:19:35.865Z,48.62
2022-09-23T06:22:02.194Z,48.67
2022-09-23T06:24:31.346Z,48.79
2022-09-23T06:26:58.105Z,48.11
2022-09-23T06:29:24.447Z,48.70
2022-09-23T06:31:50.838Z,48.10
2022-09-23T06:34:17.388Z,48.80
2022-09-23T06:36:45.962Z,48.01
2022-09-23T06:39:12.659Z,48.31
2022-09-23T06:41:38.995Z,48.24
2022-09-23T06:44:05.317Z,48.32
2022-09-23T06:46:31.760Z,48.40
2022-09-23T06:48:58.196Z,48.36
2022-09-23T06:51:24.526Z,48.10
2022-09-23T06:53:50.857Z,48.47
2022-09-23T06:56:17.189Z,48.54
2022-09-23T06:58:43.513Z,48.29
2022-09-23T07:01:09.897Z,48.23
2022-09-23T07:03:36.275Z,48.38
2022-09-23T07:06:02.592Z,48.47
2022-09-23T07:08:28.926Z,48.75
2022-09-23T07:10:55.248Z,48.35
2022-09-23T07:13:21.580Z,48.78
2022-09-23T07:15:47.944Z,48.16
2022-09-23T07:18:14.281Z,48.32
2022-09-23T07:20:40.604Z,48.59
2022-09-23T07:23:06.928Z,47.98
2022-09-23T07:25:33.253Z,48.10
2022-09-23T07:27:59.576Z,47.96
2022-09-23T07:30:25.916Z,48.06
2022-09-23T07:32:52.269Z,47.85
2022-09-23T07:35:18.680Z,47.92
2022-09-23T07:37:45.030Z,47.79
2022-09-23T07:40:11.458Z,48.10
2022-09-23T07:42:37.850Z,48.17
2022-09-23T07:45:04.193Z,47.54
2022-09-23T07:47:30.534Z,47.75
2022-09-23T07:49:56.857Z,47.85
2022-09-23T07:52:23.192Z,48.00
2022-09-23T07:54:49.521Z,47.96
2022-09-23T07:57:15.874Z,48.26
2022-09-23T07:59:42.214Z,47.78
2022-09-23T08:02:08.551Z,48.13
2022-09-23T08:04:34.889Z,47.80
2022-09-23T08:07:01.238Z,48.24
2022-09-23T08:09:27.634Z,47.73
2022-09-23T08:11:53.964Z,47.90
2022-09-23T08:14:20.307Z,47.79
2022-09-23T08:16:46.628Z,47.96
2022-09-23T08:19:14.016Z,47.52
2022-09-23T08:21:40.351Z,47.67
2022-09-23T08:24:06.779Z,48.15
2022-09-23T08:26:33.188Z,48.04
2022-09-23T08:28:59.520Z,47.90
2022-09-23T08:31:25.886Z,47.78
2022-09-23T08:33:52.308Z,47.64
2022-09-23T08:36:18.637Z,47.95
2022-09-23T08:38:44.973Z,47.64
2022-09-23T08:41:11.309Z,47.39
2022-09-23T08:43:37.645Z,47.02
2022-09-23T08:46:04.022Z,47.48
2022-09-23T08:48:30.364Z,47.28
2022-09-23T08:50:56.704Z,47.12
2022-09-23T08:53:23.027Z,47.01
2022-09-23T08:55:49.373Z,47.49
2022-09-23T08:58:25.033Z,47.31
2022-09-23T09:00:52.161Z,47.23
2022-09-23T09:03:18.478Z,46.98
2022-09-23T09:05:53.790Z,46.96
2022-09-23T09:08:20.649Z,47.04
2022-09-23T09:10:46.978Z,47.32
2022-09-23T09:13:13.305Z,47.29
2022-09-23T09:15:39.669Z,47.25
2022-09-23T09:18:06.191Z,46.93
2022-09-23T09:20:32.547Z,47.14
2022-09-23T09:22:58.959Z,47.50
2022-09-23T09:25:25.288Z,46.60
2022-09-23T09:27:51.617Z,46.97
2022-09-23T09:30:17.960Z,47.08
2022-09-23T09:32:44.310Z,47.28
2022-09-23T09:35:10.641Z,47.32
2022-09-23T09:37:36.963Z,47.21
2022-09-23T09:40:03.292Z,47.14
2022-09-23T09:42:29.831Z,46.88
2022-09-23T09:44:56.163Z,47.36
2022-09-23T09:47:22.489Z,46.75
2022-09-23T09:49:48.808Z,46.67
2022-09-23T09:52:15.140Z,46.76
2022-09-23T09:54:41.401Z,46.51
2022-09-23T09:57:07.730Z,47.08
2022-09-23T09:59:34.075Z,47.08
2022-09-23T10:02:00.409Z,46.78
2022-09-23T10:04:26.775Z,46.72
2022-09-23T10:06:53.125Z,46.67
2022-09-23T10:09:19.521Z,47.01
2022-09-23T10:11:45.875Z,46.66
2022-09-23T10:14:12.205Z,46.99
2022-09-23T10:16:38.582Z,47.02
2022-09-23T10:19:04.928Z,46.98
2022-09-23T10:21:31.266Z,46.63
2022-09-23T10:23:57.620Z,47.01
2022-09-23T10:26:23.948Z,47.19
2022-09-23T10:28:50.287Z,46.43
2022-09-23T10:31:16.711Z,46.73
2022-09-23T10:33:43.100Z,46.83
2022-09-23T10:36:09.432Z,46.78
2022-09-23T10:38:35.756Z,46.75
2022-09-23T10:41:02.214Z,46.72
2022-09-23T10:43:28.676Z,46.91
2022-09-23T10:45:55.039Z,46.98
2022-09-23T10:48:21.420Z,46.78
2022-09-23T10:50:47.749Z,47.15
2022-09-23T10:53:14.073Z,47.16
2022-09-23T10:55:40.402Z,46.57
2022-09-23T10:58:06.738Z,46.65
2022-09-23T11:00:33.061Z,46.89
2022-09-23T11:02:59.401Z,46.90
2022-09-23T11:05:25.740Z,46.71
2022-09-23T11:07:52.070Z,46.83
2022-09-23T11:10:35.404Z,47.08
2022-09-23T11:13:04.714Z,46.73
2022-09-23T11:15:31.066Z,46.85
2022-09-23T11:17:57.397Z,46.86
2022-09-23T11:20:23.737Z,47.13
2022-09-23T11:22:50.078Z,46.77
2022-09-23T11:25:16.393Z,47.06
2022-09-23T11:27:42.723Z,47.30
2022-09-23T11:30:09.057Z,46.78
2022-09-23T11:32:35.395Z,47.01
2022-09-23T11:35:01.721Z,47.08
2022-09-23T11:37:28.052Z,47.21
2022-09-23T11:39:54.386Z,46.58
2022-09-23T11:42:20.721Z,47.19
2022-09-23T11:44:47.054Z,46.92
2022-09-23T11:47:13.383Z,47.35
2022-09-23T11:49:39.708Z,46.97
2022-09-23T11:52:06.019Z,46.82
2022-09-23T11:54:32.351Z,46.68
2022-09-23T11:56:58.693Z,47.03
2022-09-23T11:59:36.640Z,46.82
2022-09-23T12:02:18.225Z,46.93
2022-09-23T12:04:56.472Z,46.75
2022-09-23T12:07:24.284Z,46.89
2022-09-23T12:09:58.792Z,46.63
2022-09-23T12:12:27.189Z,46.60
2022-09-23T12:14:53.725Z,46.91
2022-09-23T12:17:20.056Z,47.15
2022-09-23T12:19:46.390Z,47.00
2022-09-23T12:22:12.721Z,46.97
2022-09-23T12:24:39.035Z,46.82
2022-09-23T12:27:05.373Z,46.81
2022-09-23T12:29:31.714Z,46.63
2022-09-23T12:31:58.045Z,47.02
2022-09-23T12:34:24.378Z,46.75
2022-09-23T12:36:50.713Z,47.02
2022-09-23T12:39:17.057Z,46.70
2022-09-23T12:41:43.372Z,47.24
2022-09-23T12:44:09.766Z,47.00
2022-09-23T12:46:36.124Z,46.76
2022-09-23T12:49:02.458Z,46.63
2022-09-23T12:51:28.784Z,46.69
2022-09-23T12:53:55.126Z,46.85
2022-09-23T12:56:21.470Z,46.91
2022-09-23T12:58:47.798Z,46.80
2022-09-23T13:01:14.305Z,46.62
2022-09-23T13:03:40.701Z,46.98
2022-09-23T13:06:07.021Z,46.88
2022-09-23T13:08:33.372Z,46.62
2022-09-23T13:10:59.706Z,47.16
2022-09-23T13:13:26.034Z,46.59
2022-09-23T13:15:52.356Z,47.06
2022-09-23T13:18:18.688Z,47.02
2022-09-23T13:20:45.018Z,46.65
2022-09-23T13:23:11.357Z,46.97
2022-09-23T13:25:37.664Z,46.92
2022-09-23T13:28:04.008Z,47.00
2022-09-23T13:30:30.341Z,46.87
2022-09-23T13:32:56.659Z,46.88
2022-09-23T13:35:22.991Z,47.01
2022-09-23T13:37:49.315Z,46.62
2022-09-23T13:40:15.694Z,46.89
2022-09-23T13:42:42.081Z,47.08
2022-09-23T13:45:08.419Z,47.01
2022-09-23T13:47:34.747Z,47.19
2022-09-23T13:50:01.087Z,47.03
2022-09-23T13:52:27.426Z,47.35
2022-09-23T13:54:53.761Z,47.21
2022-09-23T13:57:20.094Z,47.00
2022-09-23T13:59:46.416Z,47.11
2022-09-23T14:02:12.874Z,47.38
2022-09-23T14:04:39.243Z,47.24
2022-09-23T14:07:05.573Z,46.86
2022-09-23T14:09:31.927Z,47.18
2022-09-23T14:11:58.263Z,47.13
2022-09-23T14:14:24.602Z,47.20
2022-09-23T14:16:50.975Z,47.13
2022-09-23T14:19:17.312Z,47.23
2022-09-23T14:21:43.640Z,46.76
2022-09-23T14:24:10.023Z,47.28
2022-09-23T14:26:36.446Z,47.17
2022-09-23T14:29:02.928Z,47.56
2022-09-23T14:31:29.346Z,47.59
2022-09-23T14:33:55.669Z,47.25
2022-09-23T14:36:21.992Z,47.59
2022-09-23T14:38:48.321Z,47.11
2022-09-23T14:41:14.657Z,47.66
2022-09-23T14:43:41.028Z,47.16
2022-09-23T14:46:07.395Z,47.41
2022-09-23T14:48:33.776Z,47.22
2022-09-23T14:51:00.110Z,47.12
2022-09-23T14:53:26.441Z,47.18
2022-09-23T14:55:52.799Z,47.68
2022-09-23T14:58:19.144Z,47.55
2022-09-23T15:00:45.507Z,47.45
2022-09-23T15:03:11.914Z,47.57
2022-09-23T15:05:38.284Z,47.29
2022-09-23T15:08:04.615Z,47.09
2022-09-23T15:10:30.947Z,47.33
2022-09-23T15:12:57.278Z,47.11
2022-09-23T15:15:23.614Z,47.75
2022-09-23T15:17:49.932Z,47.26
2022-09-23T15:20:16.271Z,47.68
2022-09-23T15:22:42.602Z,47.57
2022-09-23T15:25:08.928Z,47.60
2022-09-23T15:27:35.263Z,47.71
2022-09-23T15:30:01.593Z,47.71
2022-09-23T15:32:27.924Z,47.69
2022-09-23T15:34:54.260Z,47.86
2022-09-23T15:37:20.577Z,47.65
2022-09-23T15:39:46.906Z,47.38
2022-09-23T15:42:13.233Z,47.47
2022-09-23T15:44:39.579Z,47.49
2022-09-23T15:47:05.902Z,47.76
2022-09-23T15:49:32.232Z,47.43
2022-09-23T15:51:58.562Z,47.80
2022-09-23T15:54:24.896Z,47.51
2022-09-23T15:56:51.225Z,47.71
2022-09-23T15:59:17.550Z,47.60
2022-09-23T16:01:43.967Z,47.27
2022-09-23T16:04:10.430Z,47.42
2022-09-23T16:06:36.774Z,47.56
2022-09-23T16:09:03.188Z,47.74
2022-09-23T16:13:55.842Z,47.73
2022-09-23T16:16:22.259Z,47.71
2022-09-23T16:18:48.665Z,47.31
2022-09-23T16:21:15.009Z,47.58
2022-09-23T16:23:41.325Z,47.73
2022-09-23T16:26:07.676Z,47.70
2022-09-23T16:28:34.071Z,47.49
2022-09-23T16:31:00.402Z,47.57
2022-09-23T16:33:26.733Z,47.51
2022-09-23T16:35:53.074Z,47.66
2022-09-23T16:38:19.429Z,47.78
2022-09-23T16:40:47.275Z,47.61
2022-09-23T16:43:13.828Z,47.61
2022-09-23T16:45:40.257Z,47.62
2022-09-23T16:48:06.653Z,47.98
2022-09-23T16:50:32.990Z,47.28
2022-09-23T16:52:59.316Z,47.77
2022-09-23T16:55:25.655Z,47.45
2022-09-23T16:57:52.006Z,47.62
2022-09-23T17:00:18.344Z,47.69
2022-09-23T17:02:44.721Z,47.63
2022-09-23T17:05:11.069Z,47.84
2022-09-23T17:07:37.417Z,48.08
2022-09-23T17:10:03.758Z,47.88
2022-09-23T17:12:30.089Z,47.77
2022-09-23T17:14:56.441Z,47.82
2022-09-23T17:17:22.771Z,47.88
2022-09-23T17:19:49.101Z,48.18
2022-09-23T17:22:15.433Z,47.69
2022-09-23T17:24:41.770Z,47.79
2022-09-23T17:29:34.382Z,47.87
2022-09-23T17:32:00.830Z,47.47
2022-09-23T17:34:27.297Z,47.70
2022-09-23T17:36:53.619Z,47.50
2022-09-23T17:39:19.943Z,47.76
2022-09-23T17:41:46.280Z,48.16
2022-09-23T17:44:12.621Z,47.91
2022-09-23T17:46:38.954Z,48.05
2022-09-23T17:49:05.313Z,48.08
2022-09-23T17:51:31.623Z,47.79
2022-09-23T17:53:57.987Z,47.63
2022-09-23T17:56:24.318Z,48.04
2022-09-23T17:58:50.650Z,47.79
2022-09-23T18:01:17.108Z,48.09
2022-09-23T18:03:43.570Z,47.94
2022-09-23T18:06:09.898Z,47.86
2022-09-23T18:08:36.230Z,47.92
2022-09-23T18:11:02.562Z,47.75
2022-09-23T18:13:28.888Z,47.93
2022-09-23T18:15:55.277Z,48.02
2022-09-23T18:18:21.684Z,48.03
2022-09-23T18:20:48.022Z,48.03
2022-09-23T18:23:14.363Z,48.27
2022-09-23T18:25:40.707Z,47.77
2022-09-23T18:28:07.036Z,47.72
2022-09-23T18:30:33.381Z,47.91
2022-09-23T18:32:59.731Z,48.08
2022-09-23T18:35:26.069Z,47.91
2022-09-23T18:37:52.413Z,47.78
2022-09-23T18:40:18.788Z,47.74
2022-09-23T18:42:45.167Z,47.82
2022-09-23T18:45:11.489Z,48.13
2022-09-23T18:47:37.815Z,47.64
2022-09-23T18:50:04.155Z,47.77
2022-09-23T18:52:30.491Z,47.99
2022-09-23T18:54:56.826Z,47.87
2022-09-23T18:57:23.148Z,47.94
2022-09-23T18:59:49.454Z,47.79
2022-09-23T19:02:15.832Z,47.83
2022-09-23T19:04:42.215Z,47.63
2022-09-23T19:07:08.544Z,48.17
2022-09-23T19:09:34.886Z,48.22
2022-09-23T19:12:01.201Z,47.72
2022-09-23T19:14:27.534Z,48.09
2022-09-23T19:16:53.868Z,48.22
2022-09-23T19:19:20.204Z,48.62
2022-09-23T19:27:40.520Z,45.97
2022-09-23T19:30:06.868Z,46.35
2022-09-23T19:32:33.212Z,46.91
2022-09-23T19:34:59.551Z,47.86
2022-09-23T19:37:25.899Z,49.00
2022-09-23T19:39:52.330Z,49.15
2022-09-23T19:42:18.663Z,49.55
2022-09-23T19:44:45.011Z,50.35
2022-09-23T19:47:11.402Z,51.15
2022-09-23T19:49:37.761Z,50.92
2022-09-23T19:52:04.098Z,50.94
2022-09-23T19:54:30.457Z,51.82
2022-09-23T19:56:56.839Z,52.55
2022-09-23T19:59:23.189Z,53.23
2022-09-23T20:01:49.603Z,53.05
2022-09-23T20:04:16.116Z,51.95
2022-09-23T20:06:42.508Z,54.33
2022-09-23T20:09:08.854Z,53.60
2022-09-23T20:11:35.195Z,53.94
2022-09-23T20:14:01.886Z,54.51
2022-09-23T20:16:28.513Z,54.71
2022-09-23T20:18:54.913Z,55.07
2022-09-23T20:21:21.270Z,54.77
2022-09-23T20:23:47.617Z,54.71
2022-09-23T20:26:13.949Z,55.39
2022-09-23T20:28:40.283Z,55.66
2022-09-23T20:31:06.693Z,55.54
2022-09-23T20:33:33.073Z,55.95
2022-09-23T20:35:59.417Z,55.85
2022-09-23T20:38:25.770Z,55.54
2022-09-23T20:40:52.158Z,55.75
2022-09-23T20:43:18.558Z,55.11
2022-09-23T20:45:44.906Z,54.95
2022-09-23T20:48:11.246Z,55.73
2022-09-23T20:50:37.594Z,53.90
2022-09-23T20:53:03.935Z,53.62
2022-09-23T20:55:30.289Z,53.72
2022-09-23T20:57:56.632Z,54.24
2022-09-23T21:00:22.960Z,54.36
2022-09-23T21:02:49.300Z,53.85
2022-09-23T21:05:15.637Z,53.20
2022-09-23T21:07:41.968Z,54.02
2022-09-23T21:10:08.297Z,53.07
2022-09-23T21:12:34.658Z,53.44
2022-09-23T21:15:01.007Z,53.60
2022-09-23T21:17:27.350Z,53.48
2022-09-23T21:19:53.695Z,53.19
2022-09-23T21:22:20.041Z,52.60
2022-09-23T21:25:25.954Z,52.99
2022-09-23T21:27:32.697Z,53.02
2022-09-23T21:29:59.020Z,52.09
2022-09-23T21:32:25.368Z,53.18
2022-09-23T21:34:51.709Z,52.84
2022-09-23T21:37:18.032Z,53.12
2022-09-23T21:39:44.383Z,52.95
2022-09-23T21:42:10.741Z,51.97
2022-09-23T21:44:37.105Z,52.25
2022-09-23T21:47:03.538Z,52.16
2022-09-23T21:49:29.927Z,51.99
2022-09-23T21:51:56.271Z,52.02
2022-09-23T21:54:22.610Z,51.80
2022-09-23T21:56:48.970Z,51.90
2022-09-23T21:59:15.323Z,52.03
2022-09-23T22:01:41.637Z,51.66
2022-09-23T22:04:08.591Z,52.20
2022-09-23T22:06:35.182Z,52.34
2022-09-23T22:09:01.529Z,52.60
2022-09-23T22:11:27.873Z,52.45
2022-09-23T22:13:54.210Z,52.06
2022-09-23T22:16:20.607Z,52.09
2022-09-23T22:18:46.988Z,52.09
2022-09-23T22:21:13.335Z,51.93
2022-09-23T22:23:39.673Z,52.36
2022-09-23T22:26:06.006Z,52.23
2022-09-23T22:28:32.350Z,52.26
2022-09-23T22:30:58.732Z,52.34
2022-09-23T22:33:25.077Z,52.37
2022-09-23T22:35:51.406Z,52.63
2022-09-23T22:38:17.757Z,52.42
2022-09-23T22:40:44.173Z,51.93
2022-09-23T22:43:10.557Z,52.06
2022-09-23T22:45:36.904Z,52.16
2022-09-23T22:48:03.238Z,51.88
2022-09-23T22:50:29.576Z,51.87
2022-09-23T22:52:55.926Z,52.18
2022-09-23T22:55:22.263Z,52.06
2022-09-23T22:57:48.588Z,52.30
2022-09-23T23:00:14.917Z,52.30
2022-09-23T23:02:41.248Z,52.70
2022-09-23T23:05:07.577Z,52.09
2022-09-23T23:07:33.922Z,52.00
2022-09-23T23:10:00.271Z,52.26
2022-09-23T23:12:26.613Z,52.12
2022-09-23T23:14:52.944Z,52.71
2022-09-23T23:17:19.305Z,52.63
2022-09-23T23:19:45.647Z,53.04
2022-09-23T23:22:11.986Z,52.95
2022-09-23T23:24:38.333Z,53.28
2022-09-23T23:27:04.663Z,53.50
2022-09-23T23:29:31.001Z,53.36
2022-09-23T23:31:57.338Z,53.87
2022-09-23T23:34:23.677Z,53.28
2022-09-23T23:36:50.014Z,53.44
2022-09-23T23:39:16.344Z,54.36
2022-09-23T23:41:42.682Z,53.53
2022-09-23T23:44:09.103Z,54.40
2022-09-23T23:46:35.624Z,54.01
2022-09-23T23:49:02.029Z,53.90
2022-09-23T23:51:28.374Z,54.33
2022-09-23T23:53:54.708Z,54.03
2022-09-23T23:56:21.049Z,54.17
2022-09-23T23:58:47.390Z,54.26
